createdAt,value
2016-10-28T00:03:28.810Z,0
2016-10-28T00:08:29.066Z,0
2016-10-28T00:13:28.713Z,0
2016-10-28T00:18:28.955Z,0
2016-10-28T00:23:28.603Z,0
2016-10-28T00:28:28.541Z,0
2016-10-28T00:33:28.485Z,0
2016-10-28T00:38:28.739Z,0
2016-10-28T00:43:28.701Z,0
2016-10-28T00:48:28.330Z,0
2016-10-28T00:53:28.284Z,0
2016-10-28T00:58:28.240Z,0
2016-10-28T01:03:28.505Z,0
2016-10-28T01:08:28.443Z,0
2016-10-28T01:13:28.429Z,0
2016-10-28T01:18:28.029Z,0
2016-10-28T01:23:28.328Z,0
2016-10-28T01:28:27.968Z,0
2016-10-28T01:33:27.885Z,0
2016-10-28T01:38:27.832Z,0
2016-10-28T01:43:28.081Z,0
2016-10-28T01:48:27.735Z,0
2016-10-28T01:53:27.972Z,0
2016-10-28T01:58:27.924Z,0
2016-10-28T02:03:27.612Z,0
2016-10-28T02:08:27.813Z,0
2016-10-28T02:13:27.771Z,0
2016-10-28T02:18:27.719Z,0
2016-10-28T02:23:27.360Z,0
2016-10-28T02:28:27.315Z,0
2016-10-28T02:33:27.558Z,0
2016-10-28T02:38:27.205Z,0
2016-10-28T02:43:27.150Z,0
2016-10-28T02:48:27.454Z,0
2016-10-28T02:53:27.353Z,0
2016-10-28T02:58:26.700Z,0
2016-10-28T03:03:26.949Z,0
2016-10-28T03:08:26.592Z,0
2016-10-28T03:13:27.157Z,0
2016-10-28T03:18:27.103Z,0
2016-10-28T03:23:26.736Z,0
2016-10-28T03:28:26.753Z,0
2016-10-28T03:33:26.629Z,0
2016-10-28T03:38:26.890Z,0
2016-10-28T03:43:26.538Z,0
2016-10-28T03:48:26.795Z,0
2016-10-28T03:53:26.443Z,0
2016-10-28T03:58:26.377Z,0
2016-10-28T04:03:26.632Z,0
2016-10-28T04:08:26.588Z,0
2016-10-28T04:13:26.242Z,0
2016-10-28T04:18:26.174Z,0
2016-10-28T04:23:26.433Z,0
2016-10-28T04:28:25.452Z,0
2016-10-28T04:33:26.323Z,0
2016-10-28T04:38:26.269Z,0
2016-10-28T04:43:26.215Z,0
2016-10-28T04:48:25.861Z,0
2016-10-28T04:53:26.117Z,0
2016-10-28T04:58:25.443Z,0
2016-10-28T05:03:26.008Z,0
2016-10-28T05:08:25.649Z,0
2016-10-28T05:13:25.283Z,0
2016-10-28T05:18:25.849Z,0
2016-10-28T05:23:25.486Z,0
2016-10-28T05:28:25.731Z,0
2016-10-28T05:33:25.681Z,0
2016-10-28T05:38:25.322Z,0
2016-10-28T05:43:25.579Z,0
2016-10-28T05:48:25.219Z,0
2016-10-28T05:53:25.470Z,0
2016-10-28T05:58:25.417Z,0
2016-10-28T06:03:25.357Z,0
2016-10-28T06:08:25.314Z,0
2016-10-28T06:13:24.951Z,0
2016-10-28T06:18:24.899Z,0
2016-10-28T06:23:25.182Z,0
2016-10-28T06:28:24.790Z,0
2016-10-28T06:33:24.744Z,0
2016-10-28T06:38:24.680Z,0
2016-10-28T06:43:24.630Z,0
2016-10-28T06:48:24.878Z,0
2016-10-28T06:53:24.857Z,0
2016-10-28T06:58:24.767Z,0
2016-10-28T07:03:24.103Z,0
2016-10-28T07:08:24.361Z,0
2016-10-28T07:13:24.295Z,0
2016-10-28T07:18:24.545Z,0
2016-10-28T07:23:24.192Z,0
2016-10-28T07:28:23.860Z,0
2016-10-28T07:33:24.084Z,0
2016-10-28T07:38:24.356Z,0
2016-10-28T07:43:23.976Z,12
2016-10-28T07:48:24.226Z,8
2016-10-28T07:53:24.180Z,12
2016-10-28T07:58:24.123Z,12
2016-10-28T08:03:23.465Z,12
2016-10-28T08:08:23.719Z,12
2016-10-28T08:13:23.986Z,8
2016-10-28T08:18:23.309Z,12
2016-10-28T08:23:23.883Z,12
2016-10-28T08:28:23.519Z,12
2016-10-28T08:33:23.773Z,12
2016-10-28T08:38:23.119Z,8
2016-10-28T08:43:23.057Z,16
2016-10-28T08:48:23.312Z,16
2016-10-28T08:53:23.271Z,16
2016-10-28T08:58:23.532Z,16
2016-10-28T09:03:23.467Z,12
2016-10-28T09:08:22.854Z,12
2016-10-28T09:13:23.366Z,12
2016-10-28T09:18:23.010Z,8
2016-10-28T09:23:22.960Z,4
2016-10-28T09:28:22.918Z,8
2016-10-28T09:33:22.884Z,12
2016-10-28T09:38:22.505Z,12
2016-10-28T09:43:22.766Z,16
2016-10-28T09:48:23.032Z,16
2016-10-28T09:53:22.972Z,16
2016-10-28T09:58:22.918Z,16
2016-10-28T10:03:22.570Z,16
2016-10-28T10:08:22.520Z,12
2016-10-28T10:13:22.774Z,8
2016-10-28T10:18:22.426Z,8
2016-10-28T10:23:22.686Z,16
2016-10-28T10:28:22.630Z,24
2016-10-28T10:33:21.966Z,20
2016-10-28T10:38:22.240Z,20
2016-10-28T10:43:22.177Z,20
2016-10-28T10:48:21.823Z,16
2016-10-28T10:53:21.787Z,16
2016-10-28T10:58:22.033Z,16
2016-10-28T11:03:21.983Z,16
2016-10-28T11:08:21.934Z,12
2016-10-28T11:13:22.191Z,12
2016-10-28T11:18:21.843Z,12
2016-10-28T11:23:22.095Z,8
2016-10-28T11:28:21.777Z,12
2016-10-28T11:33:21.996Z,12
2016-10-28T11:38:21.337Z,8
2016-10-28T11:43:21.899Z,16
2016-10-28T11:48:21.541Z,24
2016-10-28T11:53:21.186Z,20
2016-10-28T11:58:21.439Z,16
2016-10-28T12:03:21.722Z,24
2016-10-28T12:08:21.654Z,28
2016-10-28T12:13:21.297Z,24
2016-10-28T12:18:21.238Z,16
2016-10-28T12:23:21.196Z,16
2016-10-28T12:28:21.460Z,16
2016-10-28T12:33:21.447Z,16
2016-10-28T12:38:20.449Z,12
2016-10-28T12:43:21.308Z,12
2016-10-28T12:48:21.251Z,8
2016-10-28T12:53:21.214Z,8
2016-10-28T12:58:21.155Z,12
2016-10-28T13:03:20.801Z,20
2016-10-28T13:08:20.744Z,16
2016-10-28T13:13:20.402Z,16
2016-10-28T13:18:20.952Z,40
2016-10-28T13:23:20.302Z,8
2016-10-28T13:28:20.870Z,8
2016-10-28T13:33:20.852Z,8
2016-10-28T13:38:20.782Z,8
2016-10-28T13:43:20.414Z,8
2016-10-28T13:48:20.662Z,8
2016-10-28T13:53:20.610Z,8
2016-10-28T13:58:20.576Z,12
2016-10-28T14:03:20.226Z,16
2016-10-28T14:08:20.166Z,12
2016-10-28T14:13:20.420Z,12
2016-10-28T14:18:20.067Z,4
2016-10-28T14:23:20.319Z,4
2016-10-28T14:28:19.980Z,8
2016-10-28T14:33:20.255Z,4
2016-10-28T14:38:19.883Z,8
2016-10-28T14:43:19.847Z,8
2016-10-28T14:48:20.074Z,8
2016-10-28T14:53:20.036Z,8
2016-10-28T14:58:19.357Z,4
2016-10-28T15:03:19.673Z,4
2016-10-28T15:08:19.659Z,4
2016-10-28T15:13:19.609Z,4
2016-10-28T15:18:19.517Z,4
2016-10-28T15:23:19.858Z,0
2016-10-28T15:28:18.786Z,8
2016-10-28T15:33:19.311Z,4
2016-10-28T15:38:19.588Z,4
2016-10-28T15:43:19.525Z,8
2016-10-28T15:48:18.851Z,8
2016-10-28T15:53:18.807Z,4
2016-10-28T15:58:18.764Z,4
2016-10-28T16:03:19.327Z,4
2016-10-28T16:08:19.267Z,4
2016-10-28T16:13:18.952Z,4
2016-10-28T16:18:18.865Z,4
2016-10-28T16:23:18.825Z,4
2016-10-28T16:28:19.091Z,4
2016-10-28T16:33:18.715Z,4
2016-10-28T16:38:18.686Z,4
2016-10-28T16:43:18.650Z,4
2016-10-28T16:48:18.912Z,4
2016-10-28T16:53:18.878Z,4
2016-10-28T16:58:18.534Z,4
2016-10-28T17:03:18.162Z,4
2016-10-28T17:08:18.432Z,4
2016-10-28T17:13:18.644Z,4
2016-10-28T17:18:18.604Z,4
2016-10-28T17:23:18.248Z,4
2016-10-28T17:28:18.210Z,0
2016-10-28T17:33:18.450Z,4
2016-10-28T17:38:18.392Z,4
2016-10-28T17:43:18.108Z,4
2016-10-28T17:48:18.319Z,4
2016-10-28T17:53:17.684Z,4
2016-10-28T17:58:18.276Z,4
2016-10-28T18:03:17.924Z,4
2016-10-28T18:08:18.256Z,4
2016-10-28T18:13:17.934Z,4
2016-10-28T18:18:17.966Z,4
2016-10-28T18:23:18.405Z,4
2016-10-28T18:28:18.481Z,0
2016-10-28T18:33:17.765Z,4
2016-10-28T18:38:18.097Z,4
2016-10-28T18:43:18.175Z,4
2016-10-28T18:48:18.599Z,4
2016-10-28T18:53:18.181Z,4
2016-10-28T18:58:18.581Z,4
2016-10-28T19:03:18.511Z,4
2016-10-28T19:08:17.634Z,4
2016-10-28T19:13:18.395Z,4
2016-10-28T19:18:18.316Z,4
2016-10-28T19:23:18.345Z,4
2016-10-28T19:28:17.035Z,4
2016-10-28T19:33:17.467Z,4
2016-10-28T19:38:17.709Z,4
2016-10-28T19:43:18.139Z,4
2016-10-28T19:48:17.693Z,4
2016-10-28T19:53:17.605Z,4
2016-10-28T19:58:17.960Z,4
2016-10-28T20:03:17.857Z,4
2016-10-28T20:08:17.849Z,4
2016-10-28T20:13:17.492Z,4
2016-10-28T20:18:17.069Z,4
2016-10-28T20:23:17.689Z,4
2016-10-28T20:28:17.619Z,4
2016-10-28T20:33:17.582Z,8
2016-10-28T20:38:17.609Z,4
2016-10-28T20:43:17.125Z,4
2016-10-28T20:48:17.133Z,8
2016-10-28T20:53:16.957Z,8
2016-10-28T20:58:17.411Z,8
2016-10-28T21:03:16.871Z,8
2016-10-28T21:08:16.640Z,4
2016-10-28T21:13:16.095Z,4
2016-10-28T21:18:16.070Z,4
2016-10-28T21:23:16.312Z,4
2016-10-28T21:28:15.659Z,4
2016-10-28T21:33:16.221Z,4
2016-10-28T21:38:15.879Z,8
2016-10-28T21:43:16.133Z,4
2016-10-28T21:48:16.083Z,8
2016-10-28T21:53:16.043Z,4
2016-10-28T21:58:15.695Z,4
2016-10-28T22:03:15.641Z,4
2016-10-28T22:08:15.908Z,4
2016-10-28T22:13:15.861Z,0
2016-10-28T22:18:15.866Z,0
2016-10-28T22:23:15.752Z,0
2016-10-28T22:28:15.774Z,0
2016-10-28T22:33:15.060Z,0
2016-10-28T22:38:15.310Z,0
2016-10-28T22:43:15.260Z,0
2016-10-28T22:48:15.210Z,0
2016-10-28T22:53:15.460Z,0
2016-10-28T22:58:15.110Z,0
2016-10-28T23:03:15.410Z,0
2016-10-28T23:08:15.025Z,0
2016-10-28T23:13:15.266Z,0
2016-10-28T23:18:15.216Z,0
2016-10-28T23:23:15.174Z,0
2016-10-28T23:28:14.816Z,0
2016-10-28T23:33:14.770Z,0
2016-10-28T23:38:14.413Z,0
2016-10-28T23:43:14.996Z,0
2016-10-28T23:48:14.913Z,0
2016-10-28T23:53:14.864Z,0
2016-10-28T23:58:14.208Z,0
